sensor_id;sensor_type;location;lat;lon;timestamp;P1;P2;P0
57049;PMS7003;42935;50.966;16.992;2024-03-23T00:54:53;28;25;17
57049;PMS7003;42935;50.966;16.992;2024-03-23T00:59:33;32;25;16
57049;PMS7003;42935;50.966;16.992;2024-03-23T01:04:12;27;21;14
57049;PMS7003;42935;50.966;16.992;2024-03-23T01:08:50;27;22;14
57049;PMS7003;42935;50.966;16.992;2024-03-23T01:13:33;27;22;14
57049;PMS7003;42935;50.966;16.992;2024-03-23T01:18:12;31;24;16
57049;PMS7003;42935;50.966;16.992;2024-03-23T01:22:59;31;24;15
57049;PMS7003;42935;50.966;16.992;2024-03-23T01:27:37;29;25;17
57049;PMS7003;42935;50.966;16.992;2024-03-23T01:32:20;32;28;17
57049;PMS7003;42935;50.966;16.992;2024-03-23T01:37:03;31;26;17
57049;PMS7003;42935;50.966;16.992;2024-03-23T01:41:41;31;23;16
57049;PMS7003;42935;50.966;16.992;2024-03-23T01:46:20;30;24;16
57049;PMS7003;42935;50.966;16.992;2024-03-23T01:51:01;31;23;16
57049;PMS7003;42935;50.966;16.992;2024-03-23T01:55:40;40;29;17
57049;PMS7003;42935;50.966;16.992;2024-03-23T02:00:20;32;25;16
57049;PMS7003;42935;50.966;16.992;2024-03-23T02:05:05;35;25;18
57049;PMS7003;42935;50.966;16.992;2024-03-23T02:09:44;27;24;16
57049;PMS7003;42935;50.966;16.992;2024-03-23T02:14:24;31;25;17
57049;PMS7003;42935;50.966;16.992;2024-03-23T02:19:03;36;31;18
57049;PMS7003;42935;50.966;16.992;2024-03-23T02:23:48;28;24;15
57049;PMS7003;42935;50.966;16.992;2024-03-23T02:28:30;31;24;16
57049;PMS7003;42935;50.966;16.992;2024-03-23T02:33:13;33;28;18
57049;PMS7003;42935;50.966;16.992;2024-03-23T02:37:58;31;27;17
57049;PMS7003;42935;50.966;16.992;2024-03-23T02:42:37;29;24;16
57049;PMS7003;42935;50.966;16.992;2024-03-23T02:47:20;37;29;17
57049;PMS7003;42935;50.966;16.992;2024-03-23T02:51:59;28;20;14
57049;PMS7003;42935;50.966;16.992;2024-03-23T02:56:38;35;24;15
57049;PMS7003;42935;50.966;16.992;2024-03-23T03:01:17;31;27;17
57049;PMS7003;42935;50.966;16.992;2024-03-23T03:05:56;30;26;14
57049;PMS7003;42935;50.966;16.992;2024-03-23T03:10:35;29;23;15
57049;PMS7003;42935;50.966;16.992;2024-03-23T03:15:14;25;22;15
57049;PMS7003;42935;50.966;16.992;2024-03-23T03:19:53;29;24;18
57049;PMS7003;42935;50.966;16.992;2024-03-23T03:24:33;30;23;15
57049;PMS7003;42935;50.966;16.992;2024-03-23T03:29:13;27;21;16
57049;PMS7003;42935;50.966;16.992;2024-03-23T03:33:56;29;25;16
57049;PMS7003;42935;50.966;16.992;2024-03-23T03:38:39;36;27;16
57049;PMS7003;42935;50.966;16.992;2024-03-23T03:43:19;30;25;17
57049;PMS7003;42935;50.966;16.992;2024-03-23T03:48:06;29;25;17
57049;PMS7003;42935;50.966;16.992;2024-03-23T03:52:43;33;26;18
57049;PMS7003;42935;50.966;16.992;2024-03-23T03:57:22;28;24;15
57049;PMS7003;42935;50.966;16.992;2024-03-23T04:02:01;28;22;15
57049;PMS7003;42935;50.966;16.992;2024-03-23T04:06:40;30;25;17
57049;PMS7003;42935;50.966;16.992;2024-03-23T04:11:23;35;28;18
57049;PMS7003;42935;50.966;16.992;2024-03-23T04:16:02;40;27;17
57049;PMS7003;42935;50.966;16.992;2024-03-23T04:20:41;26;21;16
57049;PMS7003;42935;50.966;16.992;2024-03-23T04:25:25;33;28;17
57049;PMS7003;42935;50.966;16.992;2024-03-23T04:30:05;31;23;16
57049;PMS7003;42935;50.966;16.992;2024-03-23T04:34:48;33;27;20
57049;PMS7003;42935;50.966;16.992;2024-03-23T04:39:29;37;28;19
57049;PMS7003;42935;50.966;16.992;2024-03-23T04:44:08;31;26;18
57049;PMS7003;42935;50.966;16.992;2024-03-23T04:48:51;34;29;18
57049;PMS7003;42935;50.966;16.992;2024-03-23T04:53:30;34;28;19
57049;PMS7003;42935;50.966;16.992;2024-03-23T04:58:15;34;29;17
57049;PMS7003;42935;50.966;16.992;2024-03-23T05:02:57;37;30;19
57049;PMS7003;42935;50.966;16.992;2024-03-23T05:07:41;38;30;18
57049;PMS7003;42935;50.966;16.992;2024-03-23T05:12:20;41;26;18
57049;PMS7003;42935;50.966;16.992;2024-03-23T05:16:58;32;25;16
57049;PMS7003;42935;50.966;16.992;2024-03-23T05:21:45;35;27;17
57049;PMS7003;42935;50.966;16.992;2024-03-23T05:26:25;33;30;17
57049;PMS7003;42935;50.966;16.992;2024-03-23T05:31:04;32;27;17
57049;PMS7003;42935;50.966;16.992;2024-03-23T05:35:42;30;24;17
57049;PMS7003;42935;50.966;16.992;2024-03-23T05:40:25;32;27;17
57049;PMS7003;42935;50.966;16.992;2024-03-23T05:45:09;33;27;17
57049;PMS7003;42935;50.966;16.992;2024-03-23T05:54:33;33;29;19
57049;PMS7003;42935;50.966;16.992;2024-03-23T05:59:08;33;29;17
57049;PMS7003;42935;50.966;16.992;2024-03-23T06:03:51;33;26;17
57049;PMS7003;42935;50.966;16.992;2024-03-23T06:08:29;34;26;17
57049;PMS7003;42935;50.966;16.992;2024-03-23T06:13:11;34;28;19
57049;PMS7003;42935;50.966;16.992;2024-03-23T06:17:48;28;23;17
57049;PMS7003;42935;50.966;16.992;2024-03-23T06:22:27;30;27;20
57049;PMS7003;42935;50.966;16.992;2024-03-23T06:27:04;35;31;19
57049;PMS7003;42935;50.966;16.992;2024-03-23T06:31:44;34;26;17
57049;PMS7003;42935;50.966;16.992;2024-03-23T06:36:33;33;29;18
57049;PMS7003;42935;50.966;16.992;2024-03-23T06:41:16;32;29;18
57049;PMS7003;42935;50.966;16.992;2024-03-23T06:45:55;32;27;18
57049;PMS7003;42935;50.966;16.992;2024-03-23T06:50:42;34;30;17
57049;PMS7003;42935;50.966;16.992;2024-03-23T06:55:28;36;30;19
57049;PMS7003;42935;50.966;16.992;2024-03-23T07:00:11;34;27;17
57049;PMS7003;42935;50.966;16.992;2024-03-23T07:04:57;33;29;18
57049;PMS7003;42935;50.966;16.992;2024-03-23T07:09:35;32;24;17
57049;PMS7003;42935;50.966;16.992;2024-03-23T07:14:18;35;27;17
57049;PMS7003;42935;50.966;16.992;2024-03-23T07:18:59;31;24;17
57049;PMS7003;42935;50.966;16.992;2024-03-23T07:23:43;37;30;18
57049;PMS7003;42935;50.966;16.992;2024-03-23T07:28:22;31;27;19
57049;PMS7003;42935;50.966;16.992;2024-03-23T07:33:05;31;25;17
57049;PMS7003;42935;50.966;16.992;2024-03-23T07:37:43;27;25;18
57049;PMS7003;42935;50.966;16.992;2024-03-23T07:42:29;29;25;16
57049;PMS7003;42935;50.966;16.992;2024-03-23T07:47:12;31;25;17
57049;PMS7003;42935;50.966;16.992;2024-03-23T07:51:51;31;27;19
57049;PMS7003;42935;50.966;16.992;2024-03-23T07:56:35;33;26;15
57049;PMS7003;42935;50.966;16.992;2024-03-23T08:01:18;30;25;17
57049;PMS7003;42935;50.966;16.992;2024-03-23T08:05:58;26;22;14
57049;PMS7003;42935;50.966;16.992;2024-03-23T08:10:50;27;22;15
57049;PMS7003;42935;50.966;16.992;2024-03-23T08:15:33;27;24;15
57049;PMS7003;42935;50.966;16.992;2024-03-23T08:20:13;28;21;15
57049;PMS7003;42935;50.966;16.992;2024-03-23T08:24:56;31;24;15
57049;PMS7003;42935;50.966;16.992;2024-03-23T08:29:34;26;22;15
57049;PMS7003;42935;50.966;16.992;2024-03-23T08:34:14;25;20;14
57049;PMS7003;42935;50.966;16.992;2024-03-23T08:43:39;26;23;15
57049;PMS7003;42935;50.966;16.992;2024-03-23T08:48:19;22;21;15
57049;PMS7003;42935;50.966;16.992;2024-03-23T08:52:59;21;19;14
57049;PMS7003;42935;50.966;16.992;2024-03-23T08:57:37;27;23;15
57049;PMS7003;42935;50.966;16.992;2024-03-23T09:02:15;23;18;13
57049;PMS7003;42935;50.966;16.992;2024-03-23T09:06:53;26;21;14
57049;PMS7003;42935;50.966;16.992;2024-03-23T09:11:33;26;22;16
57049;PMS7003;42935;50.966;16.992;2024-03-23T09:16:11;24;20;13
57049;PMS7003;42935;50.966;16.992;2024-03-23T09:20:50;24;19;13
57049;PMS7003;42935;50.966;16.992;2024-03-23T09:25:31;23;21;14
57049;PMS7003;42935;50.966;16.992;2024-03-23T09:30:10;24;23;16
57049;PMS7003;42935;50.966;16.992;2024-03-23T09:34:49;26;22;15
57049;PMS7003;42935;50.966;16.992;2024-03-23T09:39:27;24;22;15
57049;PMS7003;42935;50.966;16.992;2024-03-23T09:44:06;22;19;16
57049;PMS7003;42935;50.966;16.992;2024-03-23T09:48:46;26;21;15
57049;PMS7003;42935;50.966;16.992;2024-03-23T09:53:25;28;27;16
57049;PMS7003;42935;50.966;16.992;2024-03-23T09:58:04;24;21;15
57049;PMS7003;42935;50.966;16.992;2024-03-23T10:02:43;27;22;15
57049;PMS7003;42935;50.966;16.992;2024-03-23T10:07:25;25;22;15
57049;PMS7003;42935;50.966;16.992;2024-03-23T10:12:12;25;19;14
57049;PMS7003;42935;50.966;16.992;2024-03-23T10:17:06;20;17;13
57049;PMS7003;42935;50.966;16.992;2024-03-23T10:26:33;22;18;13
57049;PMS7003;42935;50.966;16.992;2024-03-23T10:31:14;19;16;12
57049;PMS7003;42935;50.966;16.992;2024-03-23T10:35:57;22;17;13
57049;PMS7003;42935;50.966;16.992;2024-03-23T10:40:40;22;18;13
57049;PMS7003;42935;50.966;16.992;2024-03-23T10:45:19;22;19;13
57049;PMS7003;42935;50.966;16.992;2024-03-23T10:50:08;25;24;15
57049;PMS7003;42935;50.966;16.992;2024-03-23T10:54:53;19;15;10
57049;PMS7003;42935;50.966;16.992;2024-03-23T10:59:40;23;17;13
57049;PMS7003;42935;50.966;16.992;2024-03-23T11:14:12;15;12;9
57049;PMS7003;42935;50.966;16.992;2024-03-23T11:18:55;18;16;12
57049;PMS7003;42935;50.966;16.992;2024-03-23T11:23:46;16;13;10
57049;PMS7003;42935;50.966;16.992;2024-03-23T11:28:29;17;14;9
57049;PMS7003;42935;50.966;16.992;2024-03-23T11:33:06;14;11;9
57049;PMS7003;42935;50.966;16.992;2024-03-23T11:37:45;15;14;11
57049;PMS7003;42935;50.966;16.992;2024-03-23T11:42:33;19;17;14
57049;PMS7003;42935;50.966;16.992;2024-03-23T11:47:15;17;15;12
57049;PMS7003;42935;50.966;16.992;2024-03-23T11:51:55;22;20;13
57049;PMS7003;42935;50.966;16.992;2024-03-23T11:56:34;21;18;13
57049;PMS7003;42935;50.966;16.992;2024-03-23T12:01:19;22;21;15
57049;PMS7003;42935;50.966;16.992;2024-03-23T12:05:59;20;18;14
57049;PMS7003;42935;50.966;16.992;2024-03-23T12:10:38;19;17;13
57049;PMS7003;42935;50.966;16.992;2024-03-23T12:15:18;18;15;12
57049;PMS7003;42935;50.966;16.992;2024-03-23T12:19:57;19;16;13
57049;PMS7003;42935;50.966;16.992;2024-03-23T12:24:36;22;17;13
57049;PMS7003;42935;50.966;16.992;2024-03-23T12:29:21;11;9;7
57049;PMS7003;42935;50.966;16.992;2024-03-23T12:34:00;7;7;5
57049;PMS7003;42935;50.966;16.992;2024-03-23T12:38:41;10;10;7
57049;PMS7003;42935;50.966;16.992;2024-03-23T12:43:21;10;9;7
57049;PMS7003;42935;50.966;16.992;2024-03-23T12:48:00;11;8;7
57049;PMS7003;42935;50.966;16.992;2024-03-23T12:52:41;9;9;7
57049;PMS7003;42935;50.966;16.992;2024-03-23T12:57:20;12;10;8
57049;PMS7003;42935;50.966;16.992;2024-03-23T13:02:03;12;11;9
57049;PMS7003;42935;50.966;16.992;2024-03-23T13:06:43;13;12;9
57049;PMS7003;42935;50.966;16.992;2024-03-23T13:11:22;19;14;10
57049;PMS7003;42935;50.966;16.992;2024-03-23T13:16:00;12;10;9
57049;PMS7003;42935;50.966;16.992;2024-03-23T13:20:41;14;11;8
57049;PMS7003;42935;50.966;16.992;2024-03-23T13:25:19;16;15;11
57049;PMS7003;42935;50.966;16.992;2024-03-23T13:30:03;16;15;11
57049;PMS7003;42935;50.966;16.992;2024-03-23T13:34:43;13;11;7
57049;PMS7003;42935;50.966;16.992;2024-03-23T13:39:27;12;12;8
57049;PMS7003;42935;50.966;16.992;2024-03-23T13:44:06;11;9;7
57049;PMS7003;42935;50.966;16.992;2024-03-23T13:48:46;9;7;5
57049;PMS7003;42935;50.966;16.992;2024-03-23T13:53:25;7;6;4
57049;PMS7003;42935;50.966;16.992;2024-03-23T13:58:03;8;6;4
57049;PMS7003;42935;50.966;16.992;2024-03-23T14:02:41;7;6;5
57049;PMS7003;42935;50.966;16.992;2024-03-23T14:07:20;8;6;4
57049;PMS7003;42935;50.966;16.992;2024-03-23T14:11:59;6;6;5
57049;PMS7003;42935;50.966;16.992;2024-03-23T14:16:34;4;2;2
57049;PMS7003;42935;50.966;16.992;2024-03-23T14:21:14;3;3;3
57049;PMS7003;42935;50.966;16.992;2024-03-23T14:25:56;1;1;0
57049;PMS7003;42935;50.966;16.992;2024-03-23T14:30:35;0;0;0
57049;PMS7003;42935;50.966;16.992;2024-03-23T14:35:16;1;0;0
57049;PMS7003;42935;50.966;16.992;2024-03-23T14:39:57;2;0;0
57049;PMS7003;42935;50.966;16.992;2024-03-23T14:44:35;2;1;0
57049;PMS7003;42935;50.966;16.992;2024-03-23T14:49:14;5;3;2
57049;PMS7003;42935;50.966;16.992;2024-03-23T14:53:53;13;10;7
57049;PMS7003;42935;50.966;16.992;2024-03-23T14:58:32;5;3;2
57049;PMS7003;42935;50.966;16.992;2024-03-23T15:03:13;1;0;0
57049;PMS7003;42935;50.966;16.992;2024-03-23T15:07:48;0;0;0
57049;PMS7003;42935;50.966;16.992;2024-03-23T15:12:26;0;0;0
57049;PMS7003;42935;50.966;16.992;2024-03-23T15:17:05;8;6;5
57049;PMS7003;42935;50.966;16.992;2024-03-23T15:21:46;9;2;1
57049;PMS7003;42935;50.966;16.992;2024-03-23T15:26:27;4;1;0
57049;PMS7003;42935;50.966;16.992;2024-03-23T15:31:07;17;7;4
57049;PMS7003;42935;50.966;16.992;2024-03-23T15:35:59;17;8;4
57049;PMS7003;42935;50.966;16.992;2024-03-23T15:40:35;0;0;0
57049;PMS7003;42935;50.966;16.992;2024-03-23T15:45:17;3;2;2
57049;PMS7003;42935;50.966;16.992;2024-03-23T15:49:56;3;1;1
57049;PMS7003;42935;50.966;16.992;2024-03-23T15:54:36;2;2;1
57049;PMS7003;42935;50.966;16.992;2024-03-23T15:59:15;3;2;1
57049;PMS7003;42935;50.966;16.992;2024-03-23T16:03:54;3;0;0
57049;PMS7003;42935;50.966;16.992;2024-03-23T16:08:33;2;1;0
57049;PMS7003;42935;50.966;16.992;2024-03-23T16:13:12;1;0;0
57049;PMS7003;42935;50.966;16.992;2024-03-23T16:17:50;1;0;0
57049;PMS7003;42935;50.966;16.992;2024-03-23T16:22:28;2;0;0
57049;PMS7003;42935;50.966;16.992;2024-03-23T16:27:08;2;2;1
57049;PMS7003;42935;50.966;16.992;2024-03-23T16:31:46;0;0;0
57049;PMS7003;42935;50.966;16.992;2024-03-23T16:36:24;2;1;1
57049;PMS7003;42935;50.966;16.992;2024-03-23T16:41:03;0;0;0
57049;PMS7003;42935;50.966;16.992;2024-03-23T16:50:38;1;0;0
57049;PMS7003;42935;50.966;16.992;2024-03-23T16:55:18;1;0;0
57049;PMS7003;42935;50.966;16.992;2024-03-23T16:59:53;2;0;0
57049;PMS7003;42935;50.966;16.992;2024-03-23T17:04:31;0;0;0
57049;PMS7003;42935;50.966;16.992;2024-03-23T17:09:10;2;0;0
57049;PMS7003;42935;50.966;16.992;2024-03-23T17:13:52;0;0;0
57049;PMS7003;42935;50.966;16.992;2024-03-23T17:18:32;0;0;0
57049;PMS7003;42935;50.966;16.992;2024-03-23T17:23:09;1;0;0
57049;PMS7003;42935;50.966;16.992;2024-03-23T17:27:46;0;0;0
57049;PMS7003;42935;50.966;16.992;2024-03-23T17:32:30;0;0;0
57049;PMS7003;42935;50.966;16.992;2024-03-23T17:37:09;1;0;0
57049;PMS7003;42935;50.966;16.992;2024-03-23T17:41:46;1;0;0
57049;PMS7003;42935;50.966;16.992;2024-03-23T17:46:27;0;0;0
57049;PMS7003;42935;50.966;16.992;2024-03-23T17:51:07;0;0;0
57049;PMS7003;42935;50.966;16.992;2024-03-23T17:55:51;0;0;0
57049;PMS7003;42935;50.966;16.992;2024-03-23T18:00:29;1;0;0
57049;PMS7003;42935;50.966;16.992;2024-03-23T18:05:07;1;0;0
57049;PMS7003;42935;50.966;16.992;2024-03-23T18:09:45;1;1;0
57049;PMS7003;42935;50.966;16.992;2024-03-23T18:14:24;3;1;1
57049;PMS7003;42935;50.966;16.992;2024-03-23T18:19:05;1;0;0
57049;PMS7003;42935;50.966;16.992;2024-03-23T18:23:45;2;2;1
57049;PMS7003;42935;50.966;16.992;2024-03-23T18:28:23;4;1;0
57049;PMS7003;42935;50.966;16.992;2024-03-23T18:33:03;2;0;0
57049;PMS7003;42935;50.966;16.992;2024-03-23T18:37:41;5;0;0
57049;PMS7003;42935;50.966;16.992;2024-03-23T18:41:05;2;1;1
57049;PMS7003;42935;50.966;16.992;2024-03-23T18:44:57;5;2;1
57049;PMS7003;42935;50.966;16.992;2024-03-23T18:48:50;4;2;1
57049;PMS7003;42935;50.966;16.992;2024-03-23T18:52:46;5;2;1
57049;PMS7003;42935;50.966;16.992;2024-03-23T18:56:03;5;4;3
57049;PMS7003;42935;50.966;16.992;2024-03-23T18:59:21;10;7;4
57049;PMS7003;42935;50.966;16.992;2024-03-23T19:02:43;13;7;5
57049;PMS7003;42935;50.966;16.992;2024-03-23T19:06:05;16;10;9
57049;PMS7003;42935;50.966;16.992;2024-03-23T19:09:22;11;8;6
57049;PMS7003;42935;50.966;16.992;2024-03-23T19:12:47;11;7;5
57049;PMS7003;42935;50.966;16.992;2024-03-23T19:16:37;16;11;6
57049;PMS7003;42935;50.966;16.992;2024-03-23T19:20:03;4;3;2
57049;PMS7003;42935;50.966;16.992;2024-03-23T19:23:24;3;3;2
57049;PMS7003;42935;50.966;16.992;2024-03-23T19:27:20;6;3;3
57049;PMS7003;42935;50.966;16.992;2024-03-23T19:31:11;9;5;4
57049;PMS7003;42935;50.966;16.992;2024-03-23T19:34:35;3;2;1
57049;PMS7003;42935;50.966;16.992;2024-03-23T19:37:53;6;3;2
57049;PMS7003;42935;50.966;16.992;2024-03-23T19:41:15;8;3;2
57049;PMS7003;42935;50.966;16.992;2024-03-23T19:44:30;7;5;4
57049;PMS7003;42935;50.966;16.992;2024-03-23T19:47:57;15;9;7
57049;PMS7003;42935;50.966;16.992;2024-03-23T19:51:18;15;8;6
57049;PMS7003;42935;50.966;16.992;2024-03-23T19:55:14;28;18;11
57049;PMS7003;42935;50.966;16.992;2024-03-23T19:59:08;25;15;10
57049;PMS7003;42935;50.966;16.992;2024-03-23T20:02:31;11;7;5
57049;PMS7003;42935;50.966;16.992;2024-03-23T20:09:22;24;17;10
57049;PMS7003;42935;50.966;16.992;2024-03-23T20:12:48;38;20;10
57049;PMS7003;42935;50.966;16.992;2024-03-23T20:16:39;26;16;11
57049;PMS7003;42935;50.966;16.992;2024-03-23T20:20:01;15;8;6
57049;PMS7003;42935;50.966;16.992;2024-03-23T20:23:50;12;8;6
57049;PMS7003;42935;50.966;16.992;2024-03-23T20:27:08;8;4;3
57049;PMS7003;42935;50.966;16.992;2024-03-23T20:30:25;5;3;2
57049;PMS7003;42935;50.966;16.992;2024-03-23T20:33:51;11;6;4
57049;PMS7003;42935;50.966;16.992;2024-03-23T20:37:14;6;5;3
57049;PMS7003;42935;50.966;16.992;2024-03-23T20:40:34;6;5;3
57049;PMS7003;42935;50.966;16.992;2024-03-23T20:43:54;8;6;4
57049;PMS7003;42935;50.966;16.992;2024-03-23T20:47:22;11;4;2
57049;PMS7003;42935;50.966;16.992;2024-03-23T20:51:11;10;6;5
57049;PMS7003;42935;50.966;16.992;2024-03-23T20:54:30;6;5;2
57049;PMS7003;42935;50.966;16.992;2024-03-23T20:57:53;8;5;3
57049;PMS7003;42935;50.966;16.992;2024-03-23T21:01:11;9;6;4
57049;PMS7003;42935;50.966;16.992;2024-03-23T21:04:27;5;3;3
57049;PMS7003;42935;50.966;16.992;2024-03-23T21:08:16;12;8;6
57049;PMS7003;42935;50.966;16.992;2024-03-23T21:11:38;9;6;4
57049;PMS7003;42935;50.966;16.992;2024-03-23T21:14:57;7;5;3
57049;PMS7003;42935;50.966;16.992;2024-03-23T21:18:16;9;6;5
57049;PMS7003;42935;50.966;16.992;2024-03-23T21:21:40;10;6;5
57049;PMS7003;42935;50.966;16.992;2024-03-23T21:24:59;13;7;5
57049;PMS7003;42935;50.966;16.992;2024-03-23T21:28:51;13;10;7
57049;PMS7003;42935;50.966;16.992;2024-03-23T21:32:16;12;9;5
57049;PMS7003;42935;50.966;16.992;2024-03-23T21:35:41;12;6;5
57049;PMS7003;42935;50.966;16.992;2024-03-23T21:39:34;14;7;5
57049;PMS7003;42935;50.966;16.992;2024-03-23T21:42:52;9;5;3
57049;PMS7003;42935;50.966;16.992;2024-03-23T21:46:14;11;5;3
57049;PMS7003;42935;50.966;16.992;2024-03-23T21:49:36;7;7;5
57049;PMS7003;42935;50.966;16.992;2024-03-23T21:52:58;11;6;4
57049;PMS7003;42935;50.966;16.992;2024-03-23T21:56:17;12;7;4
57049;PMS7003;42935;50.966;16.992;2024-03-23T21:59:39;11;5;4
57049;PMS7003;42935;50.966;16.992;2024-03-23T22:02:57;7;5;3
57049;PMS7003;42935;50.966;16.992;2024-03-23T22:06:19;10;6;3
57049;PMS7003;42935;50.966;16.992;2024-03-23T22:09:41;9;6;5
57049;PMS7003;42935;50.966;16.992;2024-03-23T22:13:08;9;6;4
57049;PMS7003;42935;50.966;16.992;2024-03-23T22:16:30;10;8;6
57049;PMS7003;42935;50.966;16.992;2024-03-23T22:19:47;6;4;3
57049;PMS7003;42935;50.966;16.992;2024-03-23T22:23:09;12;9;6
57049;PMS7003;42935;50.966;16.992;2024-03-23T22:26:39;14;10;6
57049;PMS7003;42935;50.966;16.992;2024-03-23T22:30:29;12;9;6
57049;PMS7003;42935;50.966;16.992;2024-03-23T22:33:47;14;6;5
57049;PMS7003;42935;50.966;16.992;2024-03-23T22:37:34;17;8;6
57049;PMS7003;42935;50.966;16.992;2024-03-23T22:40:56;11;5;3
57049;PMS7003;42935;50.966;16.992;2024-03-23T22:44:17;6;4;3
57049;PMS7003;42935;50.966;16.992;2024-03-23T22:47:34;11;8;6
57049;PMS7003;42935;50.966;16.992;2024-03-23T22:50:54;7;4;3
57049;PMS7003;42935;50.966;16.992;2024-03-23T22:54:15;10;4;3
57049;PMS7003;42935;50.966;16.992;2024-03-23T22:57:37;11;6;5
57049;PMS7003;42935;50.966;16.992;2024-03-23T23:00:59;8;7;4
57049;PMS7003;42935;50.966;16.992;2024-03-23T23:04:24;10;6;4
57049;PMS7003;42935;50.966;16.992;2024-03-23T23:07:44;13;7;5
57049;PMS7003;42935;50.966;16.992;2024-03-23T23:11:04;9;8;5
57049;PMS7003;42935;50.966;16.992;2024-03-23T23:14:21;10;6;5
57049;PMS7003;42935;50.966;16.992;2024-03-23T23:17:41;12;6;4
57049;PMS7003;42935;50.966;16.992;2024-03-23T23:21:04;6;6;5
57049;PMS7003;42935;50.966;16.992;2024-03-23T23:24:26;11;6;3
57049;PMS7003;42935;50.966;16.992;2024-03-23T23:27:48;13;6;5
57049;PMS7003;42935;50.966;16.992;2024-03-23T23:31:11;8;6;4
57049;PMS7003;42935;50.966;16.992;2024-03-23T23:34:32;12;7;5
57049;PMS7003;42935;50.966;16.992;2024-03-23T23:37:50;10;7;4
57049;PMS7003;42935;50.966;16.992;2024-03-23T23:41:13;14;7;5
57049;PMS7003;42935;50.966;16.992;2024-03-23T23:44:32;10;7;4
57049;PMS7003;42935;50.966;16.992;2024-03-23T23:47:50;13;6;5
57049;PMS7003;42935;50.966;16.992;2024-03-23T23:51:09;7;5;3
57049;PMS7003;42935;50.966;16.992;2024-03-23T23:54:28;10;8;5
57049;PMS7003;42935;50.966;16.992;2024-03-23T23:57:49;12;7;4
